Time;durP1;ratioP1;P1;durP2;ratioP2;P2;SDS_P1;SDS_P2;PMS_P1;PMS_P2;Temp;Humidity;BMP_temperature;BMP_pressure;BME280_temperature;BME280_humidity;BME280_pressure;Samples;Min_cycle;Max_cycle;Signal;HPM_P1;HPM_P2
2022/05/13 00:00:54;;;;;;;;;;;13.20;99.90;;;;;;4946671;29;20306;-82
2022/05/13 00:03:23;;;;;;;;;;;13.20;99.90;;;;;;4914251;29;19930;-81
2022/05/13 00:05:52;;;;;;;;;;;13.20;99.90;;;;;;4927850;29;20355;-82
2022/05/13 00:08:20;;;;;;;;;;;13.20;99.90;;;;;;4925223;29;19938;-82
2022/05/13 00:10:49;;;;;;;;;;;13.30;99.90;;;;;;4947848;29;19931;-82
2022/05/13 00:13:17;;;;;;;;;;;13.90;99.90;;;;;;4968003;29;19935;-82
2022/05/13 00:15:46;;;;;;;;;;;13.50;99.90;;;;;;4936364;29;19942;-82
2022/05/13 00:18:15;;;;;;;;;;;13.20;99.90;;;;;;4934466;28;19931;-82
2022/05/13 00:20:43;;;;;;;;;;;13.20;99.90;;;;;;4944687;29;19931;-82
2022/05/13 00:23:12;;;;;;;;;;;13.20;99.90;;;;;;4914726;29;19937;-82
2022/05/13 00:25:41;;;;;;;;;;;13.20;99.90;;;;;;4915345;29;19938;-82
2022/05/13 00:28:10;;;;;;;;;;;12.00;99.90;;;;;;4934237;29;19927;-82
2022/05/13 00:30:41;;;;;;;;;;;13.10;99.90;;;;;;4919268;29;19930;-81
2022/05/13 00:33:10;;;;;;;;;;;12.90;99.90;;;;;;4930188;29;19938;-82
2022/05/13 00:35:38;;;;;;;;;;;13.10;99.90;;;;;;4961131;29;19931;-82
2022/05/13 00:38:06;;;;;;;;;;;13.10;99.90;;;;;;4947602;29;19927;-81
2022/05/13 00:40:39;;;;;;;;;;;13.10;99.90;;;;;;4965123;29;19931;-81
2022/05/13 00:43:09;;;;;;;;;;;12.90;99.90;;;;;;4966417;29;19941;-82
2022/05/13 00:45:38;;;;;;;;;;;13.00;99.90;;;;;;4945556;29;19937;-82
2022/05/13 00:48:09;;;;;;;;;;;12.90;99.90;;;;;;4930517;29;19935;-82
2022/05/13 00:50:40;;;;;;;;;;;12.90;99.90;;;;;;4929774;29;19931;-82
2022/05/13 00:53:13;;;;;;;;;;;12.60;99.90;;;;;;4914837;29;19942;-81
2022/05/13 00:55:42;;;;;;;;;;;12.80;99.90;;;;;;4914784;29;19930;-82
2022/05/13 00:58:13;;;;;;;;;;;12.70;99.90;;;;;;4926522;29;19958;-82
2022/05/13 01:00:43;;;;;;;;;;;12.70;99.90;;;;;;4914899;29;19950;-82
2022/05/13 01:03:13;;;;;;;;;;;11.20;99.90;;;;;;4891385;29;20364;-82
2022/05/13 01:06:00;;;;;;;;;;;12.80;99.90;;;;;;4927071;29;19927;-82
2022/05/13 01:08:33;;;;;;;;;;;12.60;99.90;;;;;;4952140;29;20295;-82
2022/05/13 01:11:12;;;;;;;;;;;12.50;99.90;;;;;;4920889;29;19953;-82
2022/05/13 01:13:46;;;;;;;;;;;12.40;99.90;;;;;;4936768;29;19927;-81
2022/05/13 01:16:15;;;;;;;;;;;12.40;99.90;;;;;;4953850;29;19927;-82
2022/05/13 01:18:44;;;;;;;;;;;12.30;99.90;;;;;;4941334;29;19934;-82
2022/05/13 01:21:15;;;;;;;;;;;13.80;99.90;;;;;;4944503;29;19926;-82
2022/05/13 01:23:45;;;;;;;;;;;12.30;99.90;;;;;;4945421;29;19927;-82
2022/05/13 01:26:16;;;;;;;;;;;12.30;99.90;;;;;;4926350;29;20333;-81
2022/05/13 01:28:49;;;;;;;;;;;10.40;99.90;;;;;;4913509;29;19931;-82
2022/05/13 01:31:25;;;;;;;;;;;12.20;99.90;;;;;;4945402;29;19931;-81
2022/05/13 02:03:45;;;;;;;;;;;12.30;99.90;;;;;;4928585;29;19923;-81
2022/05/13 02:06:28;;;;;;;;;;;11.90;99.90;;;;;;4910438;29;19931;-82
2022/05/13 02:08:59;;;;;;;;;;;12.00;99.90;;;;;;4927874;29;19928;-81
2022/05/13 02:11:37;;;;;;;;;;;11.90;99.90;;;;;;4948193;29;19930;-82
2022/05/13 02:14:08;;;;;;;;;;;11.90;99.90;;;;;;4950007;29;19950;-82
2022/05/13 02:17:04;;;;;;;;;;;11.90;99.90;;;;;;4965152;29;19926;-81
2022/05/13 02:19:35;;;;;;;;;;;11.90;99.90;;;;;;4965584;29;19932;-82
2022/05/13 02:22:04;;;;;;;;;;;12.20;99.90;;;;;;4950266;29;19927;-81
2022/05/13 02:24:32;;;;;;;;;;;9.90;99.90;;;;;;4930504;29;19957;-81
2022/05/13 02:29:55;;;;;;;;;;;11.80;99.90;;;;;;4933364;29;19931;-82
2022/05/13 02:32:33;;;;;;;;;;;12.70;99.90;;;;;;4934818;29;19941;-81
2022/05/13 02:35:04;;;;;;;;;;;11.70;99.90;;;;;;4903426;29;19927;-81
2022/05/13 02:37:32;;;;;;;;;;;11.70;99.90;;;;;;4915034;29;19939;-81
2022/05/13 02:40:01;;;;;;;;;;;11.70;99.90;;;;;;4915022;29;19927;-81
2022/05/13 02:42:31;;;;;;;;;;;11.70;99.90;;;;;;4929882;29;20311;-80
2022/05/13 02:45:02;;;;;;;;;;;11.60;99.90;;;;;;4936824;29;19931;-81
2022/05/13 02:47:31;;;;;;;;;;;11.60;99.90;;;;;;4951204;29;19937;-81
2022/05/13 02:52:53;;;;;;;;;;;11.60;99.90;;;;;;4936166;29;19935;-82
2022/05/13 02:55:22;;;;;;;;;;;11.50;99.90;;;;;;4939466;29;19926;-82
2022/05/13 02:57:51;;;;;;;;;;;11.60;99.90;;;;;;4917983;29;19931;-81
2022/05/13 03:00:19;;;;;;;;;;;11.60;99.90;;;;;;4933344;29;20175;-82
2022/05/13 03:02:48;;;;;;;;;;;11.50;99.90;;;;;;4950215;29;19931;-81
2022/05/13 03:05:24;;;;;;;;;;;11.50;99.90;;;;;;4929247;29;19927;-81
2022/05/13 03:08:00;;;;;;;;;;;11.70;99.90;;;;;;4946088;29;19935;-82
2022/05/13 03:10:33;;;;;;;;;;;11.40;99.90;;;;;;4933425;29;19931;-81
2022/05/13 03:13:02;;;;;;;;;;;11.40;99.90;;;;;;4966024;29;19926;-82
2022/05/13 03:15:33;;;;;;;;;;;11.40;99.90;;;;;;4918442;29;19930;-80
2022/05/13 03:18:01;;;;;;;;;;;11.40;99.90;;;;;;4949120;29;19926;-81
2022/05/13 03:20:29;;;;;;;;;;;11.40;99.90;;;;;;4948409;29;19930;-81
2022/05/13 03:23:01;;;;;;;;;;;11.30;99.90;;;;;;4932465;29;19938;-82
2022/05/13 03:25:29;;;;;;;;;;;11.30;99.90;;;;;;4922520;29;20287;-82
2022/05/13 03:27:57;;;;;;;;;;;11.30;99.90;;;;;;4949486;29;19933;-81
2022/05/13 03:30:26;;;;;;;;;;;11.30;99.90;;;;;;4932416;29;21718;-81
2022/05/13 03:33:00;;;;;;;;;;;11.20;99.90;;;;;;4914270;29;19927;-82
2022/05/13 03:35:29;;;;;;;;;;;11.40;99.90;;;;;;4913209;29;19934;-81
2022/05/13 03:37:58;;;;;;;;;;;11.90;99.90;;;;;;4930772;29;19931;-82
2022/05/13 03:40:26;;;;;;;;;;;11.30;99.90;;;;;;4913949;29;19931;-82
2022/05/13 03:42:54;;;;;;;;;;;11.20;99.90;;;;;;4948142;29;19926;-81
2022/05/13 03:45:23;;;;;;;;;;;11.50;99.90;;;;;;4920115;29;19931;-82
2022/05/13 03:47:58;;;;;;;;;;;11.10;99.90;;;;;;4936420;29;19923;-82
2022/05/13 03:50:28;;;;;;;;;;;11.20;99.90;;;;;;4934357;29;19938;-82
2022/05/13 03:52:56;;;;;;;;;;;11.20;99.90;;;;;;4916995;29;19933;-82
2022/05/13 03:55:26;;;;;;;;;;;11.20;99.90;;;;;;4950226;29;19934;-81
2022/05/13 03:57:59;;;;;;;;;;;11.20;99.90;;;;;;4934476;29;19927;-81
2022/05/13 04:00:30;;;;;;;;;;;11.20;99.90;;;;;;4935202;29;19926;-82
2022/05/13 04:02:59;;;;;;;;;;;11.10;99.90;;;;;;4918897;29;19927;-82
2022/05/13 04:11:01;;;;;;;;;;;11.00;99.90;;;;;;4929163;29;19926;-81
2022/05/13 04:16:17;;;;;;;;;;;11.00;99.90;;;;;;4933023;29;19927;-81
2022/05/13 04:18:50;;;;;;;;;;;11.00;99.90;;;;;;4933538;29;19927;-82
2022/05/13 04:21:21;;;;;;;;;;;11.00;99.90;;;;;;4950572;29;19933;-82
2022/05/13 04:23:51;;;;;;;;;;;11.00;99.90;;;;;;4951432;29;19926;-82
2022/05/13 04:26:22;;;;;;;;;;;11.00;99.90;;;;;;4917125;29;19927;-82
2022/05/13 04:28:52;;;;;;;;;;;11.00;99.90;;;;;;4916505;29;19931;-82
2022/05/13 04:31:22;;;;;;;;;;;11.00;99.90;;;;;;4948842;29;19927;-82
2022/05/13 04:33:51;;;;;;;;;;;11.00;99.90;;;;;;4927257;29;19931;-82
2022/05/13 04:36:20;;;;;;;;;;;11.00;99.90;;;;;;4913463;29;19936;-82
2022/05/13 04:38:48;;;;;;;;;;;11.00;99.90;;;;;;4936921;29;19931;-82
2022/05/13 04:44:03;;;;;;;;;;;11.10;99.90;;;;;;4966420;29;19937;-81
2022/05/13 04:46:38;;;;;;;;;;;11.10;99.90;;;;;;4954060;29;19931;-81
2022/05/13 04:49:07;;;;;;;;;;;11.30;99.90;;;;;;4946096;29;19946;-82
2022/05/13 04:51:35;;;;;;;;;;;11.10;99.90;;;;;;4928963;29;19950;-81
2022/05/13 04:54:06;;;;;;;;;;;11.20;99.90;;;;;;4945458;29;19934;-81
2022/05/13 04:56:35;;;;;;;;;;;11.20;99.90;;;;;;4946254;29;19927;-81
2022/05/13 04:59:04;;;;;;;;;;;11.30;99.90;;;;;;4945850;29;19937;-82
2022/05/13 05:01:34;;;;;;;;;;;11.30;99.90;;;;;;4945354;29;19926;-81
2022/05/13 05:04:06;;;;;;;;;;;11.30;99.90;;;;;;4912226;29;19927;-82
2022/05/13 05:06:36;;;;;;;;;;;11.40;99.90;;;;;;4913673;29;20380;-81
2022/05/13 05:09:04;;;;;;;;;;;10.20;99.90;;;;;;4943698;29;20329;-82
2022/05/13 05:11:33;;;;;;;;;;;11.50;99.90;;;;;;4928913;29;19930;-82
2022/05/13 05:14:03;;;;;;;;;;;11.50;99.90;;;;;;4934659;29;19931;-81
2022/05/13 05:16:31;;;;;;;;;;;11.60;99.90;;;;;;4937443;29;19927;-81
2022/05/13 05:19:00;;;;;;;;;;;10.90;99.90;;;;;;4929780;29;20447;-81
2022/05/13 05:21:30;;;;;;;;;;;11.70;99.90;;;;;;4931391;29;19934;-81
2022/05/13 05:24:01;;;;;;;;;;;11.70;99.90;;;;;;4929580;29;19937;-81
2022/05/13 05:29:27;;;;;;;;;;;13.40;99.90;;;;;;4928990;29;19942;-81
2022/05/13 05:31:59;;;;;;;;;;;11.90;99.90;;;;;;4933784;29;19938;-81
2022/05/13 05:35:01;;;;;;;;;;;11.90;99.90;;;;;;4917979;29;19934;-81
2022/05/13 05:37:43;;;;;;;;;;;12.10;99.90;;;;;;4932270;29;20042;-82
2022/05/13 05:40:12;;;;;;;;;;;12.10;99.90;;;;;;4931903;29;19927;-81
2022/05/13 05:42:43;;;;;;;;;;;12.10;99.90;;;;;;4899003;29;19933;-82
2022/05/13 05:45:13;;;;;;;;;;;12.30;99.90;;;;;;4934408;29;19927;-82
2022/05/13 05:47:42;;;;;;;;;;;10.80;99.90;;;;;;4951245;29;19939;-81
2022/05/13 05:59:08;;;;;;;;;;;12.40;99.90;;;;;;4852500;29;19943;-82
2022/05/13 06:01:36;;;;;;;;;;;12.60;99.90;;;;;;4837330;29;19932;-81
2022/05/13 06:04:05;;;;;;;;;;;14.20;99.90;;;;;;4866611;29;19936;-82
2022/05/13 06:06:34;;;;;;;;;;;12.70;99.90;;;;;;4865450;29;19936;-81
2022/05/13 06:09:02;;;;;;;;;;;11.10;99.90;;;;;;4867023;29;19936;-82
2022/05/13 06:11:31;;;;;;;;;;;12.70;99.90;;;;;;4849511;29;19981;-81
2022/05/13 06:14:00;;;;;;;;;;;12.80;99.90;;;;;;4851950;29;19928;-82
2022/05/13 06:16:30;;;;;;;;;;;12.90;99.90;;;;;;4530015;29;9999724;-82
2022/05/13 06:19:00;;;;;;;;;;;13.00;99.90;;;;;;4936613;29;19928;-81
2022/05/13 06:21:33;;;;;;;;;;;13.00;99.90;;;;;;4941679;29;19937;-81
2022/05/13 06:24:07;;;;;;;;;;;13.00;99.90;;;;;;4938009;29;19915;-80
2022/05/13 06:26:36;;;;;;;;;;;13.10;99.90;;;;;;4917274;29;19927;-81
2022/05/13 06:29:06;;;;;;;;;;;13.10;99.90;;;;;;4917584;29;19927;-81
2022/05/13 06:31:37;;;;;;;;;;;13.10;99.90;;;;;;4925299;29;19927;-81
2022/05/13 06:34:06;;;;;;;;;;;13.10;99.90;;;;;;4928895;29;20332;-81
2022/05/13 06:36:36;;;;;;;;;;;12.90;99.90;;;;;;4941837;29;19931;-81
2022/05/13 06:39:06;;;;;;;;;;;11.30;99.90;;;;;;4946154;29;19930;-81
2022/05/13 06:41:42;;;;;;;;;;;13.10;99.90;;;;;;4928024;29;19926;-80
2022/05/13 06:44:24;;;;;;;;;;;13.20;99.90;;;;;;4927146;29;19950;-81
2022/05/13 06:46:52;;;;;;;;;;;13.00;99.90;;;;;;4916596;29;19931;-81
2022/05/13 06:49:20;;;;;;;;;;;13.20;99.90;;;;;;4914960;29;19943;-81
2022/05/13 06:51:48;;;;;;;;;;;13.20;99.90;;;;;;4900427;29;19931;-81
2022/05/13 06:54:18;;;;;;;;;;;13.30;99.90;;;;;;4933879;29;20286;-81
2022/05/13 06:56:54;;;;;;;;;;;13.30;99.90;;;;;;4928323;29;19937;-81
2022/05/13 06:59:24;;;;;;;;;;;13.30;99.90;;;;;;4924860;29;19926;-81
2022/05/13 07:01:57;;;;;;;;;;;13.40;99.90;;;;;;4949779;29;19945;-81
2022/05/13 07:04:28;;;;;;;;;;;13.50;99.90;;;;;;4935024;29;19933;-81
2022/05/13 07:07:03;;;;;;;;;;;13.50;99.90;;;;;;4924244;29;19931;-81
2022/05/13 07:09:31;;;;;;;;;;;13.70;99.90;;;;;;4913026;29;19931;-82
2022/05/13 07:11:59;;;;;;;;;;;13.70;99.90;;;;;;4929618;29;19941;-82
2022/05/13 07:14:29;;;;;;;;;;;13.70;99.90;;;;;;4927870;29;19915;-81
2022/05/13 07:16:57;;;;;;;;;;;14.60;99.90;;;;;;4931853;29;19937;-82
2022/05/13 07:19:31;;;;;;;;;;;13.90;99.90;;;;;;4926824;29;19931;-81
2022/05/13 07:22:01;;;;;;;;;;;13.80;99.90;;;;;;4925311;29;20089;-81
2022/05/13 07:24:30;;;;;;;;;;;14.00;99.90;;;;;;4926198;29;19935;-81
2022/05/13 07:26:58;;;;;;;;;;;14.00;99.90;;;;;;4945345;29;19930;-81
2022/05/13 07:29:26;;;;;;;;;;;14.00;99.90;;;;;;4942456;29;19935;-81
2022/05/13 07:31:54;;;;;;;;;;;14.10;99.90;;;;;;4924727;29;19927;-81
2022/05/13 07:34:23;;;;;;;;;;;14.10;99.90;;;;;;4942230;29;19935;-81
2022/05/13 07:36:54;;;;;;;;;;;14.20;99.90;;;;;;4927672;29;19930;-81
2022/05/13 07:42:15;;;;;;;;;;;14.30;99.80;;;;;;4930411;29;20527;-80
2022/05/13 07:44:47;;;;;;;;;;;14.20;99.80;;;;;;4966400;29;19939;-81
2022/05/13 07:47:16;;;;;;;;;;;14.20;99.70;;;;;;4931507;29;19926;-82
2022/05/13 07:49:45;;;;;;;;;;;14.20;99.80;;;;;;4945737;29;19933;-81
2022/05/13 07:52:13;;;;;;;;;;;14.30;99.80;;;;;;4913052;29;20316;-81
2022/05/13 07:54:42;;;;;;;;;;;14.30;99.90;;;;;;4944865;29;19927;-81
2022/05/13 07:57:10;;;;;;;;;;;14.30;99.50;;;;;;4928195;29;19927;-81
2022/05/13 08:02:26;;;;;;;;;;;14.50;99.30;;;;;;4911887;29;19934;-81
2022/05/13 08:04:56;;;;;;;;;;;14.70;99.60;;;;;;4911823;29;19928;-81
2022/05/13 08:07:24;;;;;;;;;;;14.80;98.90;;;;;;4913880;29;20440;-82
2022/05/13 08:09:53;;;;;;;;;;;14.90;99.10;;;;;;4935064;29;19927;-81
2022/05/13 08:12:21;;;;;;;;;;;15.00;98.70;;;;;;4911699;29;19931;-81
2022/05/13 08:14:49;;;;;;;;;;;15.10;98.80;;;;;;4895131;29;19931;-81
2022/05/13 08:17:18;;;;;;;;;;;15.10;98.30;;;;;;4900564;29;19931;-82
2022/05/13 08:19:45;;;;;;;;;;;15.10;98.70;;;;;;4892280;29;19947;-80
2022/05/13 08:22:14;;;;;;;;;;;15.10;98.60;;;;;;4908624;29;19938;-81
2022/05/13 08:24:44;;;;;;;;;;;15.20;98.30;;;;;;4910401;29;19931;-81
2022/05/13 08:27:12;;;;;;;;;;;15.20;98.20;;;;;;4912490;29;19938;-81
2022/05/13 08:29:40;;;;;;;;;;;15.20;98.60;;;;;;4894368;29;19927;-81
2022/05/13 08:32:33;;;;;;;;;;;16.00;98.90;;;;;;4895198;29;19931;-80
2022/05/13 08:35:06;;;;;;;;;;;15.10;98.30;;;;;;4896479;29;19938;-81
2022/05/13 08:37:51;;;;;;;;;;;15.00;98.30;;;;;;4919465;29;19946;-80
2022/05/13 08:40:32;;;;;;;;;;;14.30;98.40;;;;;;4929646;29;19927;-80
2022/05/13 08:43:08;;;;;;;;;;;14.90;98.70;;;;;;4931705;29;19928;-80
2022/05/13 08:45:44;;;;;;;;;;;14.90;98.80;;;;;;4929371;29;19931;-81
2022/05/13 08:48:13;;;;;;;;;;;14.90;98.90;;;;;;4928152;29;19927;-80
2022/05/13 08:50:56;;;;;;;;;;;15.10;98.90;;;;;;4908082;29;19927;-81
2022/05/13 08:53:30;;;;;;;;;;;14.90;98.80;;;;;;4891421;29;19928;-81
2022/05/13 08:56:04;;;;;;;;;;;14.90;98.90;;;;;;4906096;29;19933;-81
2022/05/13 08:58:35;;;;;;;;;;;14.80;99.00;;;;;;4923490;29;19931;-80
2022/05/13 09:01:09;;;;;;;;;;;14.80;99.10;;;;;;4914521;29;19915;-80
2022/05/13 09:03:37;;;;;;;;;;;14.70;99.30;;;;;;4932148;29;19927;-80
2022/05/13 09:06:12;;;;;;;;;;;14.70;99.30;;;;;;4930926;29;19942;-80
2022/05/13 09:08:47;;;;;;;;;;;14.80;99.40;;;;;;4916851;29;19938;-80
2022/05/13 09:11:25;;;;;;;;;;;14.90;99.40;;;;;;4930176;29;19933;-80
2022/05/13 09:14:00;;;;;;;;;;;15.40;99.30;;;;;;4946844;29;19930;-80
2022/05/13 09:16:39;;;;;;;;;;;15.20;99.10;;;;;;4951551;29;19941;-80
2022/05/13 09:19:11;;;;;;;;;;;15.80;99.10;;;;;;4944031;29;19931;-80
2022/05/13 09:21:50;;;;;;;;;;;15.30;98.70;;;;;;4912284;29;19927;-80
2022/05/13 09:24:46;;;;;;;;;;;14.90;98.60;;;;;;4920577;29;19931;-80
2022/05/13 09:27:46;;;;;;;;;;;15.40;98.60;;;;;;4935363;29;19935;-81
2022/05/13 09:30:21;;;;;;;;;;;15.50;98.30;;;;;;4924708;29;19934;-80
2022/05/13 09:32:49;;;;;;;;;;;15.60;98.20;;;;;;4922501;29;19950;-80
2022/05/13 09:35:39;;;;;;;;;;;15.70;98.20;;;;;;4939082;29;19941;-82
2022/05/13 09:38:18;;;;;;;;;;;15.70;98.00;;;;;;4922237;29;20124;-81
2022/05/13 09:41:03;;;;;;;;;;;15.90;97.70;;;;;;4921627;29;19938;-81
2022/05/13 09:43:43;;;;;;;;;;;16.50;97.60;;;;;;4908394;29;19950;-80
2022/05/13 09:46:19;;;;;;;;;;;15.80;97.30;;;;;;4935408;29;20408;-80
2022/05/13 09:48:56;;;;;;;;;;;15.90;97.40;;;;;;4925432;29;19930;-81
2022/05/13 09:51:38;;;;;;;;;;;15.90;97.10;;;;;;4909438;29;19935;-81
2022/05/13 09:54:12;;;;;;;;;;;16.00;96.90;;;;;;4908827;29;19937;-81
2022/05/13 09:56:48;;;;;;;;;;;16.10;97.50;;;;;;4923471;29;20312;-80
2022/05/13 09:59:20;;;;;;;;;;;16.10;96.70;;;;;;4910536;29;19926;-80
2022/05/13 10:01:48;;;;;;;;;;;16.20;96.70;;;;;;4942711;29;19950;-80
2022/05/13 10:04:26;;;;;;;;;;;16.40;96.30;;;;;;4922877;29;19937;-81
2022/05/13 10:07:04;;;;;;;;;;;16.60;96.40;;;;;;4925284;29;19939;-80
2022/05/13 10:15:34;;;;;;;;;;;16.80;95.00;;;;;;4946287;29;19937;-82
2022/05/13 10:18:12;;;;;;;;;;;16.90;95.00;;;;;;4944753;29;19933;-81
2022/05/13 10:20:41;;;;;;;;;;;16.90;95.10;;;;;;4910360;29;20201;-79
2022/05/13 10:23:09;;;;;;;;;;;16.70;94.90;;;;;;4923688;29;20557;-81
2022/05/13 10:25:57;;;;;;;;;;;16.80;95.00;;;;;;4911345;29;19931;-80
2022/05/13 10:28:49;;;;;;;;;;;16.90;95.20;;;;;;4925298;29;20298;-80
2022/05/13 10:31:18;;;;;;;;;;;17.00;94.70;;;;;;4912841;29;20138;-81
2022/05/13 10:34:05;;;;;;;;;;;17.00;94.60;;;;;;4926550;29;19930;-80
2022/05/13 10:36:55;;;;;;;;;;;17.00;94.20;;;;;;4944344;29;19942;-79
2022/05/13 10:39:51;;;;;;;;;;;17.00;94.40;;;;;;4894701;29;19931;-80
2022/05/13 10:42:20;;;;;;;;;;;17.00;94.20;;;;;;4886201;29;19938;-81
2022/05/13 10:44:53;;;;;;;;;;;17.10;94.20;;;;;;4909114;29;20396;-79
2022/05/13 10:47:25;;;;;;;;;;;17.10;94.10;;;;;;4912188;29;19927;-79
2022/05/13 10:49:52;;;;;;;;;;;17.20;94.10;;;;;;4909363;29;20284;-80
2022/05/13 10:52:35;;;;;;;;;;;17.20;93.90;;;;;;4943319;29;19931;-79
2022/05/13 10:55:14;;;;;;;;;;;17.30;93.70;;;;;;4911996;29;19931;-79
2022/05/13 10:58:01;;;;;;;;;;;17.30;93.60;;;;;;4927143;29;19938;-79
2022/05/13 11:00:49;;;;;;;;;;;17.30;93.60;;;;;;4944017;29;19927;-79
2022/05/13 11:03:36;;;;;;;;;;;17.40;93.60;;;;;;4921206;29;19941;-79
2022/05/13 11:06:11;;;;;;;;;;;17.40;93.10;;;;;;4928998;29;19937;-80
2022/05/13 11:08:57;;;;;;;;;;;17.50;93.20;;;;;;4927639;29;19933;-79
2022/05/13 11:11:39;;;;;;;;;;;17.60;93.20;;;;;;4250186;29;9999809;-79
2022/05/13 11:14:34;;;;;;;;;;;17.80;92.80;;;;;;4921069;29;19938;-80
2022/05/13 11:17:21;;;;;;;;;;;17.50;92.80;;;;;;4947204;29;19927;-80
2022/05/13 11:20:07;;;;;;;;;;;18.20;92.60;;;;;;4934312;29;19931;-79
2022/05/13 11:26:00;;;;;;;;;;;18.20;91.60;;;;;;4939751;29;19927;-81
2022/05/13 11:28:40;;;;;;;;;;;18.20;92.00;;;;;;4949123;29;19927;-80
2022/05/13 11:31:40;;;;;;;;;;;18.00;92.00;;;;;;4930873;29;19927;-81
2022/05/13 11:34:26;;;;;;;;;;;18.50;91.60;;;;;;4928995;29;19927;-80
2022/05/13 11:36:54;;;;;;;;;;;18.80;91.50;;;;;;4948446;29;19942;-81
2022/05/13 11:43:25;;;;;;;;;;;18.70;91.40;;;;;;4933471;29;20432;-80
2022/05/13 11:45:59;;;;;;;;;;;18.80;91.30;;;;;;4935307;29;19931;-80
2022/05/13 11:49:08;;;;;;;;;;;18.90;91.20;;;;;;4946306;29;19919;-80
2022/05/13 11:51:36;;;;;;;;;;;18.90;91.30;;;;;;4927153;29;19927;-81
2022/05/13 11:54:04;;;;;;;;;;;18.90;91.20;;;;;;4925056;29;20032;-80
2022/05/13 11:56:34;;;;;;;;;;;18.90;91.40;;;;;;4947130;29;20012;-81
2022/05/13 11:59:04;;;;;;;;;;;18.90;90.70;;;;;;4929695;23;19931;-89
2022/05/13 12:01:38;;;;;;;;;;;18.90;90.90;;;;;;4914833;29;19941;-89
2022/05/13 12:04:12;;;;;;;;;;;19.10;90.90;;;;;;4950059;29;19940;-88
2022/05/13 12:07:14;;;;;;;;;;;19.20;90.50;;;;;;4930078;23;19926;-75
2022/05/13 12:09:48;;;;;;;;;;;19.20;90.60;;;;;;4914380;29;19933;-81
2022/05/13 12:12:33;;;;;;;;;;;19.30;90.70;;;;;;4968165;23;20379;-80
2022/05/13 12:15:20;;;;;;;;;;;19.30;90.10;;;;;;4953454;28;19936;-80
2022/05/13 12:17:55;;;;;;;;;;;19.40;90.00;;;;;;4933913;28;19926;-81
2022/05/13 12:20:33;;;;;;;;;;;19.30;89.60;;;;;;4947832;29;19942;-80
2022/05/13 12:23:21;;;;;;;;;;;19.20;90.00;;;;;;4923940;29;19937;-81
2022/05/13 12:25:51;;;;;;;;;;;19.20;90.30;;;;;;4958180;28;19934;-82
2022/05/13 12:28:19;;;;;;;;;;;19.50;90.20;;;;;;4939035;29;19938;-81
2022/05/13 12:30:49;;;;;;;;;;;19.50;90.30;;;;;;4932453;29;19926;-81
2022/05/13 12:33:23;;;;;;;;;;;19.50;89.90;;;;;;4935697;29;19926;-81
2022/05/13 12:39:02;;;;;;;;;;;19.50;90.10;;;;;;4933174;28;19945;-81
2022/05/13 12:41:41;;;;;;;;;;;19.70;89.70;;;;;;4942419;29;19938;-80
2022/05/13 12:44:26;;;;;;;;;;;19.80;89.10;;;;;;4953204;29;19999;-81
2022/05/13 12:47:14;;;;;;;;;;;19.90;89.20;;;;;;4938303;29;19934;-81
2022/05/13 12:49:48;;;;;;;;;;;20.30;89.60;;;;;;4946370;28;19930;-80
2022/05/13 12:52:26;;;;;;;;;;;20.20;87.40;;;;;;4949095;29;19933;-81
2022/05/13 12:55:02;;;;;;;;;;;20.20;87.40;;;;;;4931123;29;19942;-81
2022/05/13 12:57:32;;;;;;;;;;;20.40;87.80;;;;;;4958789;29;19935;-81
2022/05/13 13:00:26;;;;;;;;;;;21.20;88.50;;;;;;4957832;28;19929;-80
2022/05/13 13:02:55;;;;;;;;;;;20.60;87.20;;;;;;4978003;28;19931;-82
2022/05/13 13:05:26;;;;;;;;;;;20.50;87.60;;;;;;4930235;29;19931;-81
2022/05/13 13:08:16;;;;;;;;;;;;;;;;;;;;;
2022/05/13 13:11:05;;;;;;;;;;;20.80;86.40;;;;;;4960735;28;19934;-81
2022/05/13 13:13:45;;;;;;;;;;;20.80;87.00;;;;;;4578910;29;9999837;-81
2022/05/13 13:16:36;;;;;;;;;;;20.90;86.00;;;;;;4930000;29;20009;-81
2022/05/13 13:19:33;;;;;;;;;;;21.00;85.80;;;;;;4944924;29;21506;-81
2022/05/13 13:22:14;;;;;;;;;;;21.10;85.30;;;;;;4930550;29;19941;-81
2022/05/13 13:24:44;;;;;;;;;;;21.20;85.60;;;;;;4932691;29;19941;-80
2022/05/13 13:27:16;;;;;;;;;;;21.20;84.20;;;;;;4923394;29;19934;-81
2022/05/13 13:29:46;;;;;;;;;;;21.40;84.50;;;;;;4926910;29;20004;-83
2022/05/13 13:32:30;;;;;;;;;;;21.40;84.70;;;;;;4937670;29;19933;-89
2022/05/13 13:35:03;;;;;;;;;;;21.80;84.70;;;;;;4950495;29;19950;-86
2022/05/13 13:37:37;;;;;;;;;;;21.80;84.20;;;;;;4915592;29;19927;-87
2022/05/13 13:40:19;;;;;;;;;;;22.00;83.60;;;;;;4927272;29;20158;-87
2022/05/13 13:43:04;;;;;;;;;;;;;;;;;;;;;
2022/05/13 13:46:33;;;;;;;;;;;21.70;82.10;;;;;;4825673;29;19933;-86
2022/05/13 13:50:30;;;;;;;;;;;;;;;;;;;;;
2022/05/13 13:53:58;;;;;;;;;;;21.70;82.10;;;;;;4808292;29;19929;-85
2022/05/13 14:05:14;;;;;;;;;;;21.80;80.50;;;;;;4907306;29;19927;-88
2022/05/13 14:08:54;;;;;;;;;;;22.80;80.50;;;;;;4909266;29;19927;-88
2022/05/13 14:11:24;;;;;;;;;;;22.80;79.80;;;;;;4888753;29;20077;-78
2022/05/13 14:14:12;;;;;;;;;;;22.70;79.10;;;;;;4853597;29;19927;-79
2022/05/13 14:16:50;;;;;;;;;;;23.00;80.10;;;;;;4915664;29;19927;-79
2022/05/13 14:19:21;;;;;;;;;;;23.30;79.00;;;;;;4941110;29;19930;-80
2022/05/13 14:21:51;;;;;;;;;;;23.60;78.50;;;;;;4924545;29;20030;-79
2022/05/13 14:24:37;;;;;;;;;;;23.10;78.00;;;;;;4924743;29;19935;-80
2022/05/13 14:27:28;;;;;;;;;;;24.20;76.60;;;;;;4922319;29;19938;-80
2022/05/13 14:29:57;;;;;;;;;;;24.50;76.10;;;;;;4900748;29;19935;-79
2022/05/13 14:32:35;;;;;;;;;;;24.70;75.40;;;;;;4924002;29;19938;-80
2022/05/13 14:35:25;;;;;;;;;;;24.80;74.90;;;;;;4919166;29;19942;-79
2022/05/13 14:37:55;;;;;;;;;;;24.90;74.70;;;;;;4932978;29;19930;-80
2022/05/13 14:40:28;;;;;;;;;;;25.00;74.70;;;;;;4942728;29;19954;-80
2022/05/13 14:43:00;;;;;;;;;;;25.10;74.90;;;;;;4926511;29;19938;-81
2022/05/13 14:45:28;;;;;;;;;;;25.20;74.40;;;;;;4941317;29;19951;-80
2022/05/13 14:48:29;;;;;;;;;;;25.50;74.10;;;;;;4939215;29;19931;-79
2022/05/13 14:51:11;;;;;;;;;;;25.70;73.90;;;;;;4889261;29;20191;-80
2022/05/13 14:53:59;;;;;;;;;;;25.90;73.30;;;;;;4941188;29;19935;-80
2022/05/13 14:56:28;;;;;;;;;;;26.20;73.10;;;;;;4924423;29;19935;-79
2022/05/13 14:59:01;;;;;;;;;;;26.30;72.90;;;;;;4940930;29;19931;-79
2022/05/13 15:01:43;;;;;;;;;;;26.70;71.30;;;;;;4939845;29;19927;-79
2022/05/13 15:04:16;;;;;;;;;;;26.40;70.90;;;;;;4943367;29;19927;-79
2022/05/13 15:06:46;;;;;;;;;;;27.40;71.70;;;;;;4910286;29;19941;-79
2022/05/13 15:09:18;;;;;;;;;;;26.50;70.70;;;;;;4944595;29;19935;-80
2022/05/13 15:11:47;;;;;;;;;;;26.60;70.90;;;;;;4942062;28;19927;-80
2022/05/13 15:14:15;;;;;;;;;;;26.60;70.70;;;;;;4927754;29;19927;-79
2022/05/13 15:16:44;;;;;;;;;;;26.80;70.50;;;;;;4943966;29;19931;-80
2022/05/13 15:19:24;;;;;;;;;;;26.90;70.40;;;;;;4944777;29;19930;-80
2022/05/13 15:21:56;;;;;;;;;;;27.10;69.20;;;;;;4942579;29;19947;-79
2022/05/13 15:24:25;;;;;;;;;;;27.30;68.40;;;;;;4942533;29;20322;-79
2022/05/13 15:26:54;;;;;;;;;;;27.40;68.30;;;;;;4926957;29;19927;-79
2022/05/13 15:29:22;;;;;;;;;;;27.40;68.60;;;;;;4927302;29;19935;-80
2022/05/13 15:31:55;;;;;;;;;;;27.40;68.40;;;;;;4942829;29;20442;-80
2022/05/13 15:34:23;;;;;;;;;;;27.40;69.10;;;;;;4927056;29;19935;-80
2022/05/13 15:36:51;;;;;;;;;;;27.60;68.10;;;;;;4928095;29;20004;-80
2022/05/13 15:39:20;;;;;;;;;;;27.70;69.10;;;;;;4944481;29;19949;-79
2022/05/13 15:41:50;;;;;;;;;;;27.70;67.40;;;;;;4926482;29;19931;-80
2022/05/13 15:44:18;;;;;;;;;;;27.70;67.50;;;;;;4946265;29;19935;-80
2022/05/13 15:46:47;;;;;;;;;;;27.60;67.10;;;;;;4928861;29;20501;-80
2022/05/13 15:54:50;;;;;;;;;;;27.40;67.20;;;;;;4941748;29;19927;-80
2022/05/13 15:57:24;;;;;;;;;;;27.40;67.70;;;;;;4939369;29;19946;-80
2022/05/13 15:59:53;;;;;;;;;;;27.60;67.80;;;;;;4932569;29;19927;-79
2022/05/13 16:02:24;;;;;;;;;;;27.00;67.30;;;;;;4933699;29;19931;-79
2022/05/13 16:04:56;;;;;;;;;;;27.10;67.50;;;;;;4921003;29;20582;-80
2022/05/13 16:07:24;;;;;;;;;;;27.30;67.40;;;;;;4908324;29;19931;-80
2022/05/13 16:09:52;;;;;;;;;;;27.60;67.50;;;;;;4935452;29;19931;-79
2022/05/13 16:12:32;;;;;;;;;;;27.60;67.10;;;;;;4936395;28;19931;-80
2022/05/13 16:15:02;;;;;;;;;;;26.10;65.60;;;;;;4978253;28;19930;-85
2022/05/13 16:17:33;;;;;;;;;;;27.70;66.60;;;;;;4900885;29;19931;-87
2022/05/13 16:20:12;;;;;;;;;;;29.00;67.00;;;;;;4965483;29;20508;-87
2022/05/13 16:22:53;;;;;;;;;;;29.10;68.20;;;;;;4932547;29;19927;-85
2022/05/13 16:25:24;;;;;;;;;;;28.80;67.40;;;;;;4939810;28;19925;-86
2022/05/13 16:27:56;;;;;;;;;;;29.80;68.30;;;;;;4951830;28;19927;-87
2022/05/13 16:30:24;;;;;;;;;;;28.40;66.10;;;;;;4950964;28;19927;-87
2022/05/13 16:33:21;;;;;;;;;;;28.60;66.80;;;;;;4937025;29;19926;-82
2022/05/13 16:35:52;;;;;;;;;;;27.60;63.80;;;;;;4948130;29;19930;-84